createdAt,value
2018-07-25T00:00:37.440Z,4.33
2018-07-25T00:03:03.975Z,4.80
2018-07-25T00:05:30.438Z,4.72
2018-07-25T00:07:56.922Z,4.70
2018-07-25T00:10:27.928Z,4.43
2018-07-25T00:12:54.373Z,4.70
2018-07-25T00:15:20.930Z,4.27
2018-07-25T00:17:47.390Z,4.15
2018-07-25T00:20:13.846Z,4.67
2018-07-25T00:22:40.400Z,4.47
2018-07-25T00:25:06.909Z,4.17
2018-07-25T00:27:33.444Z,4.50
2018-07-25T00:29:59.949Z,4.92
2018-07-25T00:32:26.396Z,5.20
2018-07-25T00:34:52.932Z,4.23
2018-07-25T00:37:19.389Z,4.33
2018-07-25T00:39:45.846Z,5.00
2018-07-25T00:42:12.503Z,4.45
2018-07-25T00:44:38.970Z,4.63
2018-07-25T00:47:05.448Z,4.70
2018-07-25T00:49:31.896Z,4.87
2018-07-25T00:51:58.443Z,4.60
2018-07-25T00:54:24.893Z,4.25
2018-07-25T00:56:51.472Z,4.30
2018-07-25T00:59:17.966Z,4.83
2018-07-25T01:01:44.404Z,4.70
2018-07-25T01:04:10.831Z,5.20
2018-07-25T01:06:37.761Z,4.50
2018-07-25T01:09:04.228Z,4.87
2018-07-25T01:11:30.671Z,4.77
2018-07-25T01:13:57.691Z,4.83
2018-07-25T01:16:24.219Z,5.07
2018-07-25T01:18:50.691Z,4.57
2018-07-25T01:21:17.267Z,5.13
2018-07-25T01:23:43.830Z,4.53
2018-07-25T01:26:10.290Z,4.42
2018-07-25T01:28:37.255Z,4.83
2018-07-25T01:31:04.350Z,4.70
2018-07-25T01:33:30.800Z,4.77
2018-07-25T01:35:57.233Z,4.72
2018-07-25T01:38:23.692Z,4.23
2018-07-25T01:40:50.172Z,4.73
2018-07-25T01:43:16.650Z,5.57
2018-07-25T01:45:43.249Z,4.80
2018-07-25T01:48:09.760Z,4.72
2018-07-25T01:50:36.239Z,4.80
2018-07-25T01:53:02.717Z,4.60
2018-07-25T01:55:29.780Z,5.27
2018-07-25T01:57:56.419Z,5.30
2018-07-25T02:00:22.875Z,5.40
2018-07-25T02:02:49.353Z,5.37
2018-07-25T02:05:16.347Z,4.72
2018-07-25T02:07:42.819Z,5.57
2018-07-25T02:10:09.279Z,5.37
2018-07-25T02:12:35.743Z,4.72
2018-07-25T02:15:02.212Z,5.27
2018-07-25T02:17:28.668Z,4.93
2018-07-25T02:19:55.119Z,5.03
2018-07-25T02:22:21.599Z,4.97
2018-07-25T02:24:48.051Z,4.63
2018-07-25T02:27:14.580Z,4.43
2018-07-25T02:29:42.004Z,4.90
2018-07-25T02:32:08.444Z,5.40
2018-07-25T02:34:34.904Z,4.77
2018-07-25T02:37:01.403Z,4.77
2018-07-25T02:39:27.856Z,4.50
2018-07-25T02:41:54.311Z,5.33
2018-07-25T02:44:20.899Z,4.93
2018-07-25T02:46:47.383Z,4.87
2018-07-25T02:49:13.857Z,5.10
2018-07-25T02:51:40.328Z,5.07
2018-07-25T02:54:07.103Z,4.80
2018-07-25T02:56:33.611Z,5.30
2018-07-25T02:59:01.021Z,4.93
2018-07-25T03:01:27.513Z,4.43
2018-07-25T03:03:53.999Z,5.30
2018-07-25T03:06:20.458Z,5.12
2018-07-25T03:08:46.934Z,4.30
2018-07-25T03:11:13.492Z,4.97
2018-07-25T03:13:39.954Z,5.00
2018-07-25T03:16:07.506Z,5.00
2018-07-25T03:18:33.973Z,4.70
2018-07-25T03:21:00.929Z,5.67
2018-07-25T03:23:27.784Z,5.12
2018-07-25T03:25:54.285Z,5.12
2018-07-25T03:28:20.834Z,5.33
2018-07-25T03:30:47.413Z,5.27
2018-07-25T03:33:14.524Z,6.00
2018-07-25T03:35:41.003Z,4.90
2018-07-25T03:38:07.781Z,5.73
2018-07-25T03:40:34.855Z,5.00
2018-07-25T03:43:01.331Z,5.30
2018-07-25T03:45:27.799Z,5.28
2018-07-25T03:47:54.275Z,4.97
2018-07-25T03:50:20.783Z,5.20
2018-07-25T03:52:47.284Z,5.27
2018-07-25T03:55:13.763Z,5.30
2018-07-25T03:57:40.224Z,5.27
2018-07-25T04:00:06.682Z,5.60
2018-07-25T04:02:33.171Z,5.43
2018-07-25T04:04:59.636Z,5.43
2018-07-25T04:07:26.082Z,5.37
2018-07-25T04:09:52.566Z,5.10
2018-07-25T04:12:19.074Z,5.20
2018-07-25T04:14:45.545Z,5.23
2018-07-25T04:17:12.077Z,4.60
2018-07-25T04:19:38.651Z,4.80
2018-07-25T04:22:05.140Z,4.97
2018-07-25T04:24:31.628Z,4.97
2018-07-25T04:26:58.147Z,5.30
2018-07-25T04:29:25.612Z,5.20
2018-07-25T04:31:52.107Z,5.10
2018-07-25T04:34:18.583Z,4.80
2018-07-25T04:36:45.036Z,5.10
2018-07-25T04:39:12.123Z,5.10
2018-07-25T04:41:38.955Z,4.95
2018-07-25T04:44:05.408Z,5.70
2018-07-25T04:46:31.916Z,5.50
2018-07-25T04:48:58.367Z,6.07
2018-07-25T04:51:24.829Z,5.60
2018-07-25T04:53:51.288Z,5.70
2018-07-25T04:56:17.739Z,6.72
2018-07-25T04:58:44.670Z,6.00
2018-07-25T05:01:11.158Z,6.33
2018-07-25T05:03:37.625Z,6.40
2018-07-25T05:06:04.206Z,6.67
2018-07-25T05:08:31.052Z,6.60
2018-07-25T05:10:57.500Z,6.50
2018-07-25T05:13:23.987Z,7.30
2018-07-25T05:15:50.485Z,6.65
2018-07-25T05:18:17.072Z,6.87
2018-07-25T05:20:43.555Z,6.20
2018-07-25T05:23:10.086Z,6.30
2018-07-25T05:25:36.577Z,6.47
2018-07-25T05:28:03.064Z,6.58
2018-07-25T05:30:29.577Z,6.73
2018-07-25T05:32:56.113Z,6.87
2018-07-25T05:35:22.601Z,7.22
2018-07-25T05:37:49.106Z,8.38
2018-07-25T05:40:15.569Z,6.20
2018-07-25T05:42:42.054Z,6.73
2018-07-25T05:45:08.543Z,7.03
2018-07-25T05:47:35.028Z,7.50
2018-07-25T05:50:01.490Z,7.37
2018-07-25T05:52:28.241Z,6.90
2018-07-25T05:54:54.723Z,8.00
2018-07-25T05:57:21.181Z,7.20
2018-07-25T05:59:47.632Z,6.75
2018-07-25T06:02:14.157Z,7.30
2018-07-25T06:04:40.627Z,7.07
2018-07-25T06:07:07.105Z,8.43
2018-07-25T06:09:33.568Z,7.90
2018-07-25T06:12:06.758Z,7.67
2018-07-25T06:14:33.833Z,7.70
2018-07-25T06:17:00.302Z,7.87
2018-07-25T06:19:26.768Z,7.53
2018-07-25T06:21:53.291Z,7.78
2018-07-25T06:24:19.725Z,6.97
2018-07-25T06:26:46.272Z,7.47
2018-07-25T06:29:12.857Z,7.30
2018-07-25T06:31:39.351Z,7.13
2018-07-25T06:34:05.836Z,7.42
2018-07-25T06:36:32.290Z,7.50
2018-07-25T06:38:58.751Z,7.37
2018-07-25T06:41:25.224Z,7.17
2018-07-25T06:43:51.671Z,6.85
2018-07-25T06:46:18.171Z,7.13
2018-07-25T06:48:46.291Z,7.17
2018-07-25T06:51:12.790Z,6.65
2018-07-25T06:53:39.671Z,6.93
2018-07-25T06:56:06.208Z,6.67
2018-07-25T06:58:32.642Z,7.20
2018-07-25T07:00:59.143Z,6.83
2018-07-25T07:03:25.622Z,6.93
2018-07-25T07:05:52.093Z,6.33
2018-07-25T07:08:18.565Z,6.30
2018-07-25T07:10:45.060Z,6.70
2018-07-25T07:13:11.503Z,6.80
2018-07-25T07:15:38.562Z,6.43
2018-07-25T07:18:05.051Z,6.73
2018-07-25T07:20:31.535Z,6.07
2018-07-25T07:22:58.599Z,7.03
2018-07-25T07:25:25.113Z,6.67
2018-07-25T07:27:51.583Z,5.97
2018-07-25T07:30:18.067Z,6.17
2018-07-25T07:32:44.524Z,6.43
2018-07-25T07:35:11.063Z,6.40
2018-07-25T07:37:37.593Z,6.43
2018-07-25T07:40:04.077Z,6.50
2018-07-25T07:42:30.509Z,5.90
2018-07-25T07:44:57.457Z,6.57
2018-07-25T07:47:23.952Z,6.30
2018-07-25T07:49:50.433Z,6.53
2018-07-25T07:52:16.930Z,6.00
2018-07-25T07:54:43.379Z,6.03
2018-07-25T07:57:09.969Z,6.62
2018-07-25T07:59:37.037Z,6.47
2018-07-25T08:02:03.505Z,6.33
2018-07-25T08:04:30.007Z,6.03
2018-07-25T08:06:56.523Z,5.77
2018-07-25T08:09:23.024Z,5.90
2018-07-25T08:11:49.505Z,6.27
2018-07-25T08:14:15.980Z,5.53
2018-07-25T08:16:42.448Z,5.85
2018-07-25T08:19:09.551Z,5.93
2018-07-25T08:21:36.044Z,6.20
2018-07-25T08:24:02.484Z,6.20
2018-07-25T08:26:28.958Z,6.22
2018-07-25T08:28:56.180Z,6.30
2018-07-25T08:31:22.660Z,6.10
2018-07-25T08:33:49.153Z,5.60
2018-07-25T08:36:15.788Z,5.50
2018-07-25T08:38:43.960Z,6.07
2018-07-25T08:41:10.466Z,5.13
2018-07-25T08:43:37.995Z,5.37
2018-07-25T08:46:04.646Z,5.67
2018-07-25T08:48:31.937Z,5.67
2018-07-25T08:50:58.434Z,5.93
2018-07-25T08:53:25.128Z,6.00
2018-07-25T08:55:51.778Z,5.53
2018-07-25T08:58:18.782Z,5.07
2018-07-25T09:00:45.226Z,5.17
2018-07-25T09:03:11.806Z,5.53
2018-07-25T09:05:39.126Z,5.20
2018-07-25T09:08:05.603Z,5.20
2018-07-25T09:10:32.050Z,5.20
2018-07-25T09:12:58.543Z,5.40
2018-07-25T09:15:24.989Z,5.33
2018-07-25T09:17:51.429Z,5.00
2018-07-25T09:20:17.888Z,5.37
2018-07-25T09:22:44.431Z,5.10
2018-07-25T09:25:10.912Z,4.67
2018-07-25T09:27:37.366Z,5.00
2018-07-25T09:30:03.835Z,5.10
2018-07-25T09:32:30.302Z,5.17
2018-07-25T09:34:56.782Z,5.05
2018-07-25T09:37:23.378Z,5.37
2018-07-25T09:39:49.835Z,5.00
2018-07-25T09:42:16.375Z,5.03
2018-07-25T09:44:42.906Z,4.90
2018-07-25T09:47:09.485Z,4.83
2018-07-25T09:49:35.899Z,5.20
2018-07-25T09:52:02.398Z,5.03
2018-07-25T09:54:28.911Z,5.15
2018-07-25T09:56:55.419Z,4.77
2018-07-25T09:59:21.913Z,4.77
2018-07-25T10:01:48.940Z,4.80
2018-07-25T10:04:15.944Z,4.50
2018-07-25T10:06:42.428Z,4.87
2018-07-25T10:09:10.474Z,4.80
2018-07-25T10:11:37.033Z,5.03
2018-07-25T10:14:03.505Z,4.40
2018-07-25T10:16:30.078Z,4.62
2018-07-25T10:18:56.549Z,4.42
2018-07-25T10:21:23.037Z,4.93
2018-07-25T10:23:49.539Z,4.57
2018-07-25T10:26:16.051Z,4.63
2018-07-25T10:28:42.551Z,4.62
2018-07-25T10:31:09.304Z,4.95
2018-07-25T10:33:35.823Z,4.60
2018-07-25T10:36:02.332Z,5.00
2018-07-25T10:38:28.809Z,4.90
2018-07-25T10:40:55.468Z,4.60
2018-07-25T10:43:21.956Z,4.70
2018-07-25T10:45:48.552Z,4.30
2018-07-25T10:48:15.043Z,4.47
2018-07-25T10:50:41.544Z,4.50
2018-07-25T10:53:08.028Z,4.20
2018-07-25T10:55:35.123Z,4.00
2018-07-25T10:58:01.610Z,4.90
2018-07-25T11:00:28.092Z,4.17
2018-07-25T11:02:54.587Z,4.80
2018-07-25T11:05:21.069Z,4.42
2018-07-25T11:07:47.568Z,4.70
2018-07-25T11:10:14.117Z,4.07
2018-07-25T11:12:40.659Z,4.08
2018-07-25T11:15:07.739Z,4.00
2018-07-25T11:17:34.264Z,4.40
2018-07-25T11:20:04.320Z,4.35
2018-07-25T11:22:30.803Z,4.23
2018-07-25T11:24:57.275Z,4.27
2018-07-25T11:27:23.767Z,4.42
2018-07-25T11:29:50.247Z,3.53
2018-07-25T11:32:17.026Z,4.37
2018-07-25T11:34:43.491Z,4.30
2018-07-25T11:37:10.087Z,3.67
2018-07-25T11:39:36.541Z,4.27
2018-07-25T11:42:03.023Z,3.75
2018-07-25T11:44:29.498Z,3.83
2018-07-25T11:46:55.971Z,3.80
2018-07-25T11:49:22.437Z,3.53
2018-07-25T11:51:48.909Z,3.80
2018-07-25T11:54:15.688Z,3.93
2018-07-25T11:56:42.859Z,3.80
2018-07-25T11:59:09.439Z,3.93
2018-07-25T12:01:35.969Z,4.40
2018-07-25T12:04:02.484Z,4.17
2018-07-25T12:06:29.014Z,3.47
2018-07-25T12:08:55.460Z,3.67
2018-07-25T12:11:22.015Z,3.50
2018-07-25T12:13:48.476Z,3.90
2018-07-25T12:16:15.076Z,3.98
2018-07-25T12:18:44.538Z,3.53
2018-07-25T12:21:11.142Z,3.80
2018-07-25T12:23:37.606Z,4.10
2018-07-25T12:26:04.292Z,3.52
2018-07-25T12:28:31.356Z,3.40
2018-07-25T12:30:57.880Z,3.83
2018-07-25T12:33:24.450Z,3.50
2018-07-25T12:35:50.980Z,3.70
2018-07-25T12:38:17.467Z,3.25
2018-07-25T12:40:43.990Z,3.27
2018-07-25T12:43:10.538Z,3.40
2018-07-25T12:45:37.041Z,3.40
2018-07-25T12:48:03.518Z,3.35
2018-07-25T12:50:29.996Z,3.00
2018-07-25T12:52:56.462Z,3.20
2018-07-25T12:55:23.253Z,3.40
2018-07-25T12:57:49.747Z,3.63
2018-07-25T13:00:16.247Z,2.97
2018-07-25T13:02:42.844Z,3.42
2018-07-25T13:05:09.292Z,3.20
2018-07-25T13:07:35.825Z,3.33
2018-07-25T13:10:02.466Z,3.50
2018-07-25T13:12:29.846Z,3.37
2018-07-25T13:14:56.390Z,3.00
2018-07-25T13:17:22.942Z,3.47
2018-07-25T13:19:49.433Z,3.50
2018-07-25T13:22:15.896Z,3.40
2018-07-25T13:24:42.429Z,2.70
2018-07-25T13:27:08.935Z,3.10
2018-07-25T13:29:35.965Z,3.30
2018-07-25T13:32:02.448Z,2.73
2018-07-25T13:34:29.022Z,3.00
2018-07-25T13:36:55.712Z,3.30
2018-07-25T13:39:22.176Z,2.87
2018-07-25T13:41:48.698Z,3.33
2018-07-25T13:44:15.220Z,3.40
2018-07-25T13:46:41.696Z,3.60
2018-07-25T13:49:08.177Z,3.13
2018-07-25T13:51:34.653Z,3.20
2018-07-25T13:54:01.130Z,3.00
2018-07-25T13:56:27.655Z,2.73
2018-07-25T13:58:54.161Z,3.10
2018-07-25T14:01:20.676Z,2.63
2018-07-25T14:03:47.284Z,3.00
2018-07-25T14:06:13.757Z,2.90
2018-07-25T14:08:40.593Z,2.73
2018-07-25T14:11:07.097Z,3.03
2018-07-25T14:13:33.871Z,3.17
2018-07-25T14:16:00.377Z,3.10
2018-07-25T14:18:26.876Z,2.90
2018-07-25T14:20:53.375Z,2.73
2018-07-25T14:23:19.974Z,3.02
2018-07-25T14:25:46.434Z,2.53
2018-07-25T14:28:13.434Z,2.73
2018-07-25T14:30:40.021Z,3.10
2018-07-25T14:33:06.946Z,2.80
2018-07-25T14:35:33.555Z,2.90
2018-07-25T14:38:00.037Z,2.90
2018-07-25T14:40:26.556Z,3.07
2018-07-25T14:42:53.020Z,3.27
2018-07-25T14:45:19.795Z,3.00
2018-07-25T14:47:46.240Z,2.73
2018-07-25T14:50:12.699Z,2.63
2018-07-25T14:52:39.909Z,2.90
2018-07-25T14:55:06.385Z,2.83
2018-07-25T14:57:32.861Z,2.57
2018-07-25T14:59:59.320Z,2.80
2018-07-25T15:02:25.870Z,2.60
2018-07-25T15:04:52.327Z,3.13
2018-07-25T15:07:19.350Z,3.17
2018-07-25T15:09:45.864Z,3.08
2018-07-25T15:12:12.447Z,3.13
2018-07-25T15:14:38.925Z,2.63
2018-07-25T15:17:05.421Z,2.70
2018-07-25T15:19:31.898Z,2.70
2018-07-25T15:21:58.443Z,2.75
2018-07-25T15:24:24.939Z,2.53
2018-07-25T15:26:51.474Z,2.60
2018-07-25T15:29:18.162Z,2.47
2018-07-25T15:31:44.657Z,2.93
2018-07-25T15:34:11.318Z,3.00
2018-07-25T15:36:41.105Z,2.80
2018-07-25T15:39:07.620Z,2.60
2018-07-25T15:41:34.141Z,2.50
2018-07-25T15:44:00.734Z,2.70
2018-07-25T15:46:27.268Z,2.60
2018-07-25T15:48:54.180Z,2.90
2018-07-25T15:51:20.658Z,2.30
2018-07-25T15:53:47.184Z,2.63
2018-07-25T15:56:13.686Z,2.80
2018-07-25T15:58:41.178Z,2.75
2018-07-25T16:01:08.326Z,3.47
2018-07-25T16:03:34.796Z,2.37
2018-07-25T16:06:01.294Z,2.95
2018-07-25T16:08:28.008Z,2.50
2018-07-25T16:10:54.826Z,2.55
2018-07-25T16:13:21.309Z,2.45
2018-07-25T16:15:47.814Z,3.40
2018-07-25T16:18:14.316Z,2.87
2018-07-25T16:20:40.792Z,2.53
2018-07-25T16:23:07.305Z,3.97
2018-07-25T16:25:33.801Z,4.30
2018-07-25T16:28:00.278Z,5.33
2018-07-25T16:30:26.792Z,4.67
2018-07-25T16:32:53.301Z,3.83
2018-07-25T16:35:19.772Z,3.90
2018-07-25T16:37:46.270Z,4.40
2018-07-25T16:40:12.770Z,4.53
2018-07-25T16:42:39.255Z,3.80
2018-07-25T16:45:05.802Z,4.30
2018-07-25T16:47:32.448Z,3.98
2018-07-25T16:50:05.339Z,3.27
2018-07-25T16:52:31.932Z,3.70
2018-07-25T16:54:58.492Z,4.10
2018-07-25T16:57:25.482Z,3.83
2018-07-25T16:59:52.116Z,3.50
2018-07-25T17:02:18.643Z,3.60
2018-07-25T17:04:45.119Z,3.43
2018-07-25T17:07:12.107Z,3.62
2018-07-25T17:09:38.666Z,2.43
2018-07-25T17:12:05.173Z,2.58
2018-07-25T17:14:31.686Z,2.65
2018-07-25T17:16:58.175Z,2.53
2018-07-25T17:19:24.639Z,2.90
2018-07-25T17:21:51.653Z,2.90
2018-07-25T17:24:18.626Z,2.40
2018-07-25T17:26:45.124Z,2.60
2018-07-25T17:29:11.629Z,2.53
2018-07-25T17:31:38.143Z,2.57
2018-07-25T17:34:04.662Z,2.73
2018-07-25T17:36:31.165Z,2.30
2018-07-25T17:38:57.901Z,2.20
2018-07-25T17:41:24.489Z,2.47
2018-07-25T17:43:50.898Z,2.40
2018-07-25T17:46:17.371Z,2.13
2018-07-25T17:48:44.067Z,2.53
2018-07-25T17:51:10.589Z,2.45
2018-07-25T17:53:37.107Z,2.30
2018-07-25T17:56:03.601Z,2.43
2018-07-25T17:58:30.129Z,2.10
2018-07-25T18:00:56.677Z,2.30
2018-07-25T18:03:23.190Z,2.10
2018-07-25T18:05:49.681Z,2.10
2018-07-25T18:08:16.245Z,2.00
2018-07-25T18:10:42.740Z,2.37
2018-07-25T18:13:14.882Z,2.20
2018-07-25T18:15:41.373Z,2.10
2018-07-25T18:18:07.882Z,2.37
2018-07-25T18:20:34.345Z,2.22
2018-07-25T18:23:00.905Z,2.60
2018-07-25T18:25:27.322Z,2.33
2018-07-25T18:27:53.949Z,2.50
2018-07-25T18:30:20.466Z,2.03
2018-07-25T18:32:46.999Z,2.15
2018-07-25T18:35:13.510Z,2.60
2018-07-25T18:37:39.987Z,2.60
2018-07-25T18:40:06.486Z,2.63
2018-07-25T18:42:33.115Z,2.57
2018-07-25T18:44:59.656Z,2.67
2018-07-25T18:47:26.123Z,2.30
2018-07-25T18:49:52.591Z,2.33
2018-07-25T18:52:19.230Z,2.50
2018-07-25T18:54:45.681Z,2.23
2018-07-25T18:57:12.181Z,2.67
2018-07-25T18:59:38.664Z,2.30
2018-07-25T19:02:05.949Z,2.40
2018-07-25T19:04:32.474Z,2.60
2018-07-25T19:06:58.938Z,2.30
2018-07-25T19:09:25.420Z,2.50
2018-07-25T19:11:52.531Z,2.00
2018-07-25T19:14:24.562Z,2.47
2018-07-25T19:16:51.100Z,2.40
2018-07-25T19:19:17.576Z,2.47
2018-07-25T19:21:44.062Z,2.77
2018-07-25T19:24:10.519Z,2.37
2018-07-25T19:26:37.096Z,2.47
2018-07-25T19:29:03.591Z,2.33
2018-07-25T19:31:30.060Z,2.40
2018-07-25T19:33:56.570Z,2.52
2018-07-25T19:36:23.630Z,2.50
2018-07-25T19:38:50.122Z,2.23
2018-07-25T19:41:16.625Z,2.67
2018-07-25T19:43:43.093Z,2.30
2018-07-25T19:46:10.058Z,2.40
2018-07-25T19:48:36.538Z,2.50
2018-07-25T19:51:03.829Z,2.47
2018-07-25T19:53:30.354Z,2.37
2018-07-25T19:55:56.823Z,2.20
2018-07-25T19:58:23.775Z,2.40
2018-07-25T20:00:50.315Z,2.35
2018-07-25T20:03:16.761Z,2.30
2018-07-25T20:05:43.210Z,2.30
2018-07-25T20:08:09.782Z,2.53
2018-07-25T20:10:36.282Z,2.20
2018-07-25T20:13:02.774Z,2.20
2018-07-25T20:15:35.062Z,2.33
2018-07-25T20:18:01.606Z,2.03
2018-07-25T20:20:28.573Z,2.03
2018-07-25T20:22:55.046Z,2.40
2018-07-25T20:25:21.503Z,1.90
2018-07-25T20:27:47.994Z,2.22
2018-07-25T20:30:14.501Z,2.23
2018-07-25T20:32:40.976Z,2.20
2018-07-25T20:35:07.430Z,2.23
2018-07-25T20:37:34.301Z,2.42
2018-07-25T20:40:00.780Z,2.20
2018-07-25T20:42:27.296Z,2.20
2018-07-25T20:44:53.817Z,1.93
2018-07-25T20:47:20.303Z,2.10
2018-07-25T20:49:46.830Z,2.07
2018-07-25T20:52:13.316Z,1.83
2018-07-25T20:54:39.822Z,2.40
2018-07-25T20:57:06.316Z,2.30
2018-07-25T20:59:32.798Z,2.57
2018-07-25T21:01:59.296Z,1.90
2018-07-25T21:04:25.905Z,2.17
2018-07-25T21:06:52.411Z,2.40
2018-07-25T21:09:18.993Z,2.40
2018-07-25T21:11:45.471Z,2.20
2018-07-25T21:14:11.973Z,2.40
2018-07-25T21:16:38.448Z,2.22
2018-07-25T21:19:04.911Z,2.50
2018-07-25T21:21:32.015Z,2.40
2018-07-25T21:23:58.485Z,2.13
2018-07-25T21:26:24.999Z,2.20
2018-07-25T21:28:51.706Z,2.23
2018-07-25T21:31:18.197Z,2.20
2018-07-25T21:33:44.824Z,2.57
2018-07-25T21:36:11.355Z,2.05
2018-07-25T21:38:38.363Z,2.40
2018-07-25T21:41:04.855Z,2.50
2018-07-25T21:43:31.309Z,2.27
2018-07-25T21:45:57.789Z,3.00
2018-07-25T21:48:24.702Z,2.70
2018-07-25T21:50:51.255Z,2.57
2018-07-25T21:53:17.685Z,2.37
2018-07-25T21:55:44.201Z,2.30
2018-07-25T21:58:10.682Z,2.33
2018-07-25T22:00:40.576Z,2.57
2018-07-25T22:03:07.059Z,2.37
2018-07-25T22:05:33.539Z,2.20
2018-07-25T22:08:00.003Z,2.77
2018-07-25T22:10:27.053Z,2.17
2018-07-25T22:12:53.558Z,2.00
2018-07-25T22:15:20.049Z,2.35
2018-07-25T22:17:46.545Z,2.53
2018-07-25T22:20:13.015Z,2.40
2018-07-25T22:22:40.023Z,2.40
2018-07-25T22:25:07.084Z,2.43
2018-07-25T22:27:33.588Z,2.63
2018-07-25T22:30:00.166Z,2.43
2018-07-25T22:32:26.653Z,2.60
2018-07-25T22:34:53.191Z,2.60
2018-07-25T22:37:19.699Z,2.50
2018-07-25T22:39:46.211Z,2.12
2018-07-25T22:42:12.758Z,2.30
2018-07-25T22:44:39.250Z,2.47
2018-07-25T22:47:06.259Z,2.33
2018-07-25T22:49:32.760Z,2.10
2018-07-25T22:51:59.351Z,2.77
2018-07-25T22:54:25.861Z,2.43
2018-07-25T22:56:52.849Z,2.60
2018-07-25T22:59:19.423Z,2.40
2018-07-25T23:01:45.935Z,2.50
2018-07-25T23:04:12.428Z,2.50
2018-07-25T23:06:38.931Z,2.62
2018-07-25T23:09:05.442Z,2.77
2018-07-25T23:11:31.952Z,2.30
2018-07-25T23:13:58.463Z,2.23
2018-07-25T23:16:25.027Z,3.00
2018-07-25T23:18:53.237Z,3.10
2018-07-25T23:21:19.740Z,2.60
2018-07-25T23:23:46.227Z,2.80
2018-07-25T23:26:12.734Z,2.70
2018-07-25T23:28:39.623Z,2.30
2018-07-25T23:31:06.233Z,2.47
2018-07-25T23:33:32.717Z,2.50
2018-07-25T23:35:59.308Z,2.73
2018-07-25T23:38:26.624Z,2.57
2018-07-25T23:40:53.199Z,2.40
2018-07-25T23:43:19.804Z,2.72
2018-07-25T23:45:46.375Z,2.70
2018-07-25T23:48:12.926Z,2.43
2018-07-25T23:50:39.451Z,2.63
2018-07-25T23:53:05.964Z,2.70
2018-07-25T23:55:32.512Z,2.60
2018-07-25T23:57:59.013Z,2.47
